• Join FlightAware (Why Join?)
  • Login
  • US Flag 
02:12AM EDT


 

Airport Tracker/Info


-or-


 

Live Flight TrackerFlight Track Log ✈ FLG3735 ✈ 24-Jun-2013 ✈ KDTW - KALB

Flight Track Log - Related Links

Times and Time Zones

All times are in EDT time to prevent confusion due to time zone crossing. See the FLG3735 flight status page for this flight to view local times or setup timezone preferences in your user account.

Time Position Orientation Groundspeed Altitude Reporting Facility
EDT Latitude Longitude Course Direction KTS MPH feet Rate Location/Type
10:17PM 42.1975 -83.3581 56° Northeast 150 173 1,500  Level Cleveland Center
10:18PM 42.1292 -83.3383 168° South 202 232 4,400 1,920 Climbing Cleveland Center
10:19PM 42.0564 -83.3211 170° South 286 329 6,300 2,160 Climbing Cleveland Center
10:20PM 42.3149 -82.7589 75° East  Level FlightAware Approximate
10:20PM 42.0336 -83.2278 108° East 316 364 8,800  Level Cleveland Center
10:21PM 42.3309 -82.6075 82° East  Level FlightAware Approximate
10:21PM 42.0769 -83.1597 49° Northeast 328 377 10,400  Level Cleveland Center
10:22PM 42.3604 -82.4626 56° Northeast  Level FlightAware Approximate
10:22PM 42.1272 -83.0469 59° Northeast 340 391 11,600  Level Cleveland Center
10:23PM 42.1800 -82.9172 61° Northeast 363 418 12,800 1,440 Climbing Cleveland Center
10:24PM 42.2328 -82.7844 62° Northeast 385 443 14,500 1,560 Climbing Cleveland Center
10:25PM 42.2872 -82.6517 61° Northeast 396 456 16,000 1,320 Climbing Cleveland Center
10:26PM 42.3439 -82.5131 61° Northeast 402 463 17,200 1,140 Climbing Cleveland Center
10:27PM 42.3672 -82.3650 78° East 397 457 18,300 1,020 Climbing Cleveland Center
10:28PM 42.3569 -82.2072 95° East 402 463 19,300 960 Climbing Cleveland Center
10:29PM 42.3489 -82.0328 94° East 411 473 20,300 840 Climbing Cleveland Center
10:30PM 42.3444 -81.8725 92° East 428 493 21,000 660 Climbing Cleveland Center
10:31PM 42.3358 -81.7094 94° East 428 493 21,700 660 Climbing Cleveland Center
10:32PM 42.3292 -81.5436 93° East 428 493 22,400 600 Climbing Cleveland Center
10:33PM 42.3200 -81.3778 94° East 434 499 23,000 600 Climbing Cleveland Center
10:34PM 42.3125 -81.2122 93° East 439 505 23,600 600 Climbing Cleveland Center
10:35PM 42.3050 -81.0492 94° East 440 506 24,200 480 Climbing Cleveland Center
10:36PM 42.2972 -80.8947 94° East 440 506 24,600 420 Climbing Cleveland Center
10:37PM 42.2872 -80.7319 95° East 440 506 25,100 540 Climbing Cleveland Center
10:38PM 42.2789 -80.5608 94° East 447 514 25,700 540 Climbing Cleveland Center
10:39PM 42.2683 -80.3925 95° East 442 509 26,200 480 Climbing Cleveland Center
10:40PM 42.2594 -80.2242 94° East 442 509 26,700 360 Climbing Cleveland Center
10:41PM 42.2486 -80.0531 95° East 449 517 27,000 120 Climbing Cleveland Center
10:42PM 42.2372 -79.8847 95° East 449 517 27,000  Level Cleveland Center
10:43PM 42.2278 -79.7139 94° East 454 522 27,000  Level Cleveland Center
10:44PM 42.2158 -79.5347 95° East 467 537 27,000  Level Cleveland Center
10:45PM 42.2056 -79.3583 94° East 467 537 27,000  Level Cleveland Center
10:46PM 42.1911 -79.1847 96° East 467 537 27,000  Level Cleveland Center
10:47PM 42.2036 -79.0108 84° East 461 531 27,000  Level Cleveland Center
10:48PM 42.2278 -78.8194 80° East 461 531 27,000  Level Cleveland Center
10:49PM 42.2500 -78.6450 80° East 466 536 27,000  Level Cleveland Center
10:50PM 42.2719 -78.4731 80° East 466 536 27,000  Level Cleveland Center
10:51PM 42.2939 -78.2983 80° East 466 536 27,000  Level Cleveland Center
10:52PM 42.3133 -78.1403 81° East 466 536 27,000  Level Cleveland Center
10:53PM 42.3347 -77.9653 81° East 466 536 27,000  Level Cleveland Center
10:54PM 42.3556 -77.7903 81° East 466 536 27,000  Level Cleveland Center
10:56PM 42.3983 -77.3978 81° East 481 554 27,000  Level Boston Center
10:57PM 42.4161 -77.2247 82° East 481 554 27,000  Level Boston Center
10:58PM 42.4381 -77.0519 80° East 476 548 27,000  Level Boston Center
10:59PM 42.4550 -76.8897 82° East 476 548 27,000  Level Boston Center
11:00PM 42.4742 -76.7167 81° East 471 542 27,000  Level Boston Center
11:01PM 42.4911 -76.5403 83° East 471 542 27,000  Level Boston Center
11:02PM 42.5097 -76.3667 82° East 471 542 27,000  Level Boston Center
11:03PM 42.5303 -76.1906 81° East 466 536 27,000  Level Boston Center
11:04PM 42.5483 -76.0167 82° East 466 536 27,000 -600 Level Boston Center
11:05PM 42.5622 -75.8372 84° East 466 536 25,800 -1,620 Descending Boston Center
11:06PM 42.5800 -75.6575 82° East 471 542 23,800 -2,040 Descending Boston Center
11:07PM 42.5994 -75.4836 81° East 471 542 21,800 -1,980 Descending Boston Center
11:08PM 42.6164 -75.3067 83° East 471 542 19,900 -1,920 Descending Boston Center
11:09PM 42.6311 -75.1381 83° East 465 535 18,000 -1,860 Descending Boston Center
11:10PM 42.6453 -74.9750 83° East 446 513 16,200 -1,980 Descending Boston Center
11:11PM 42.6586 -74.8314 83° East 416 479 14,400 -2,040 Descending Boston Center
11:12PM 42.6750 -74.6456 83° East 418 481 12,200 -1,560 Descending Boston Center
11:13PM 42.6881 -74.5019 83° East 396 456 11,100 -720 Descending Boston Center
11:14PM 42.6986 -74.3781 83° East 329 379 10,800 -1,080 Descending Boston Center
11:15PM 42.7089 -74.2653 83° East 284 327 9,000 -1,860 Descending Boston Center
11:16PM 42.7189 -74.1556 83° East 293 337 7,100 -1,980 Descending Boston Center
11:17PM 42.7350 -74.0428 79° East 289 333 5,000 -1,920 Descending Boston Center
11:18PM 42.7697 -73.9447 64° Northeast 281 323 3,300 -1,740 Descending Boston Center